sensor_id;sensor_type;location;lat;lon;timestamp;pressure;altitude;pressure_sealevel;temperature;humidity
19843;BME280;10082;51.038;6.992;2024-03-02T00:01:43;112171.53;;;-144.33;100.00
19843;BME280;10082;51.038;6.992;2024-03-02T00:04:19;112171.53;;;-144.33;100.00
19843;BME280;10082;51.038;6.992;2024-03-02T00:06:53;112171.53;;;-144.33;100.00
19843;BME280;10082;51.038;6.992;2024-03-02T00:09:43;112171.53;;;-144.33;100.00
19843;BME280;10082;51.038;6.992;2024-03-02T00:12:35;112171.53;;;-144.33;100.00
19843;BME280;10082;51.038;6.992;2024-03-02T00:15:30;112171.53;;;-144.33;100.00
19843;BME280;10082;51.038;6.992;2024-03-02T00:18:04;112171.53;;;-144.33;100.00
19843;BME280;10082;51.038;6.992;2024-03-02T00:20:36;112171.53;;;-144.33;100.00
19843;BME280;10082;51.038;6.992;2024-03-02T00:23:15;112171.53;;;-144.33;100.00
19843;BME280;10082;51.038;6.992;2024-03-02T00:25:48;112171.53;;;-144.33;100.00
19843;BME280;10082;51.038;6.992;2024-03-02T00:28:20;112171.53;;;-144.33;100.00
19843;BME280;10082;51.038;6.992;2024-03-02T00:30:57;112171.53;;;-144.33;100.00
19843;BME280;10082;51.038;6.992;2024-03-02T00:33:26;112171.53;;;-144.33;100.00
19843;BME280;10082;51.038;6.992;2024-03-02T00:35:56;112171.53;;;-144.33;100.00
19843;BME280;10082;51.038;6.992;2024-03-02T00:38:30;112171.53;;;-144.33;100.00
19843;BME280;10082;51.038;6.992;2024-03-02T00:41:07;112171.53;;;-144.33;100.00
19843;BME280;10082;51.038;6.992;2024-03-02T00:43:48;112171.53;;;-144.33;100.00
19843;BME280;10082;51.038;6.992;2024-03-02T00:46:36;112171.53;;;-144.33;100.00
19843;BME280;10082;51.038;6.992;2024-03-02T00:49:24;112171.53;;;-144.33;100.00
19843;BME280;10082;51.038;6.992;2024-03-02T00:51:57;112171.53;;;-144.33;100.00
19843;BME280;10082;51.038;6.992;2024-03-02T00:54:39;112171.53;;;-144.33;100.00
19843;BME280;10082;51.038;6.992;2024-03-02T00:57:10;112171.53;;;-144.33;100.00
19843;BME280;10082;51.038;6.992;2024-03-02T00:59:43;112171.53;;;-144.33;100.00
19843;BME280;10082;51.038;6.992;2024-03-02T01:02:12;112171.53;;;-144.33;100.00
19843;BME280;10082;51.038;6.992;2024-03-02T01:05:04;112171.53;;;-144.33;100.00
19843;BME280;10082;51.038;6.992;2024-03-02T01:07:48;112171.53;;;-144.33;100.00
19843;BME280;10082;51.038;6.992;2024-03-02T01:10:20;112171.53;;;-144.33;100.00
19843;BME280;10082;51.038;6.992;2024-03-02T01:12:56;112171.53;;;-144.33;100.00
19843;BME280;10082;51.038;6.992;2024-03-02T01:15:24;112171.53;;;-144.33;100.00
19843;BME280;10082;51.038;6.992;2024-03-02T01:17:52;112171.53;;;-144.33;100.00
19843;BME280;10082;51.038;6.992;2024-03-02T01:20:20;112171.53;;;-144.33;100.00
19843;BME280;10082;51.038;6.992;2024-03-02T01:22:58;112171.53;;;-144.33;100.00
19843;BME280;10082;51.038;6.992;2024-03-02T01:25:29;112171.53;;;-144.33;100.00
19843;BME280;10082;51.038;6.992;2024-03-02T01:28:08;112171.53;;;-144.33;100.00
19843;BME280;10082;51.038;6.992;2024-03-02T01:30:42;112171.53;;;-144.33;100.00
19843;BME280;10082;51.038;6.992;2024-03-02T01:33:41;112171.53;;;-144.33;100.00
19843;BME280;10082;51.038;6.992;2024-03-02T01:36:15;112171.53;;;-144.33;100.00
19843;BME280;10082;51.038;6.992;2024-03-02T01:38:45;112171.53;;;-144.33;100.00
19843;BME280;10082;51.038;6.992;2024-03-02T01:41:41;112171.53;;;-144.33;100.00
19843;BME280;10082;51.038;6.992;2024-03-02T01:44:28;112171.53;;;-144.33;100.00
19843;BME280;10082;51.038;6.992;2024-03-02T01:46:56;112171.53;;;-144.33;100.00
19843;BME280;10082;51.038;6.992;2024-03-02T01:49:27;112171.53;;;-144.33;100.00
19843;BME280;10082;51.038;6.992;2024-03-02T01:51:56;112171.53;;;-144.33;100.00
19843;BME280;10082;51.038;6.992;2024-03-02T01:54:36;112171.53;;;-144.33;100.00
19843;BME280;10082;51.038;6.992;2024-03-02T01:57:05;112171.53;;;-144.33;100.00
19843;BME280;10082;51.038;6.992;2024-03-02T01:59:35;112171.53;;;-144.33;100.00
19843;BME280;10082;51.038;6.992;2024-03-02T02:02:03;112171.53;;;-144.33;100.00
19843;BME280;10082;51.038;6.992;2024-03-02T02:04:30;112171.53;;;-144.33;100.00
19843;BME280;10082;51.038;6.992;2024-03-02T02:06:59;112171.53;;;-144.33;100.00
19843;BME280;10082;51.038;6.992;2024-03-02T02:09:26;112171.53;;;-144.33;100.00
19843;BME280;10082;51.038;6.992;2024-03-02T02:11:59;112171.53;;;-144.33;100.00
19843;BME280;10082;51.038;6.992;2024-03-02T02:14:49;112171.53;;;-144.33;100.00
19843;BME280;10082;51.038;6.992;2024-03-02T02:17:31;112171.53;;;-144.33;100.00
19843;BME280;10082;51.038;6.992;2024-03-02T02:20:02;112171.53;;;-144.33;100.00
19843;BME280;10082;51.038;6.992;2024-03-02T02:22:36;112171.53;;;-144.33;100.00
19843;BME280;10082;51.038;6.992;2024-03-02T02:25:07;112171.53;;;-144.33;100.00
19843;BME280;10082;51.038;6.992;2024-03-02T02:27:34;112171.53;;;-144.33;100.00
19843;BME280;10082;51.038;6.992;2024-03-02T02:30:24;112171.53;;;-144.33;100.00
19843;BME280;10082;51.038;6.992;2024-03-02T02:33:01;112171.53;;;-144.33;100.00
19843;BME280;10082;51.038;6.992;2024-03-02T02:35:38;112171.53;;;-144.33;100.00
19843;BME280;10082;51.038;6.992;2024-03-02T02:38:13;112171.53;;;-144.33;100.00
19843;BME280;10082;51.038;6.992;2024-03-02T02:43:26;112171.53;;;-144.33;100.00
19843;BME280;10082;51.038;6.992;2024-03-02T02:46:18;112171.53;;;-144.33;100.00
19843;BME280;10082;51.038;6.992;2024-03-02T02:49:02;112171.53;;;-144.33;100.00
19843;BME280;10082;51.038;6.992;2024-03-02T02:51:43;112171.53;;;-144.33;100.00
19843;BME280;10082;51.038;6.992;2024-03-02T02:54:16;112171.53;;;-144.33;100.00
19843;BME280;10082;51.038;6.992;2024-03-02T02:56:44;112171.53;;;-144.33;100.00
19843;BME280;10082;51.038;6.992;2024-03-02T02:59:25;112171.53;;;-144.33;100.00
19843;BME280;10082;51.038;6.992;2024-03-02T03:01:53;112171.53;;;-144.33;100.00
19843;BME280;10082;51.038;6.992;2024-03-02T03:04:36;112171.53;;;-144.33;100.00
19843;BME280;10082;51.038;6.992;2024-03-02T03:07:30;112171.53;;;-144.33;100.00
19843;BME280;10082;51.038;6.992;2024-03-02T03:10:10;112171.53;;;-144.33;100.00
19843;BME280;10082;51.038;6.992;2024-03-02T03:12:42;112171.53;;;-144.33;100.00
19843;BME280;10082;51.038;6.992;2024-03-02T03:15:33;112171.53;;;-144.33;100.00
19843;BME280;10082;51.038;6.992;2024-03-02T03:18:19;112171.53;;;-144.33;100.00
19843;BME280;10082;51.038;6.992;2024-03-02T03:20:54;112171.53;;;-144.33;100.00
19843;BME280;10082;51.038;6.992;2024-03-02T03:23:25;112171.53;;;-144.33;100.00
19843;BME280;10082;51.038;6.992;2024-03-02T03:26:08;112171.53;;;-144.33;100.00
19843;BME280;10082;51.038;6.992;2024-03-02T03:28:47;112171.53;;;-144.33;100.00
19843;BME280;10082;51.038;6.992;2024-03-02T03:31:35;112171.53;;;-144.33;100.00
19843;BME280;10082;51.038;6.992;2024-03-02T03:34:38;112171.53;;;-144.33;100.00
19843;BME280;10082;51.038;6.992;2024-03-02T03:37:31;112171.53;;;-144.33;100.00
19843;BME280;10082;51.038;6.992;2024-03-02T03:40:47;112171.53;;;-144.33;100.00
19843;BME280;10082;51.038;6.992;2024-03-02T03:43:41;112171.53;;;-144.33;100.00
19843;BME280;10082;51.038;6.992;2024-03-02T03:46:13;112171.53;;;-144.33;100.00
19843;BME280;10082;51.038;6.992;2024-03-02T03:48:47;112171.53;;;-144.33;100.00
19843;BME280;10082;51.038;6.992;2024-03-02T03:51:15;112171.53;;;-144.33;100.00
19843;BME280;10082;51.038;6.992;2024-03-02T03:53:43;112171.53;;;-144.33;100.00
19843;BME280;10082;51.038;6.992;2024-03-02T03:56:14;112171.53;;;-144.33;100.00
19843;BME280;10082;51.038;6.992;2024-03-02T03:59:14;112171.53;;;-144.33;100.00
19843;BME280;10082;51.038;6.992;2024-03-02T04:01:51;112171.53;;;-144.33;100.00
19843;BME280;10082;51.038;6.992;2024-03-02T04:04:27;112171.53;;;-144.33;100.00
19843;BME280;10082;51.038;6.992;2024-03-02T04:06:59;112171.53;;;-144.33;100.00
19843;BME280;10082;51.038;6.992;2024-03-02T04:09:39;112171.53;;;-144.33;100.00
19843;BME280;10082;51.038;6.992;2024-03-02T04:12:10;112171.53;;;-144.33;100.00
19843;BME280;10082;51.038;6.992;2024-03-02T04:14:46;112171.53;;;-144.33;100.00
19843;BME280;10082;51.038;6.992;2024-03-02T04:20:32;112171.53;;;-144.33;100.00
19843;BME280;10082;51.038;6.992;2024-03-02T04:23:26;112171.53;;;-144.33;100.00
19843;BME280;10082;51.038;6.992;2024-03-02T04:25:54;112171.53;;;-144.33;100.00
19843;BME280;10082;51.038;6.992;2024-03-02T04:28:45;112171.53;;;-144.33;100.00
19843;BME280;10082;51.038;6.992;2024-03-02T04:31:24;112171.53;;;-144.33;100.00
19843;BME280;10082;51.038;6.992;2024-03-02T04:34:12;112171.53;;;-144.33;100.00
19843;BME280;10082;51.038;6.992;2024-03-02T04:36:57;112171.53;;;-144.33;100.00
19843;BME280;10082;51.038;6.992;2024-03-02T04:39:30;112171.53;;;-144.33;100.00
19843;BME280;10082;51.038;6.992;2024-03-02T04:41:57;112171.53;;;-144.33;100.00
19843;BME280;10082;51.038;6.992;2024-03-02T04:44:32;112171.53;;;-144.33;100.00
19843;BME280;10082;51.038;6.992;2024-03-02T04:47:27;112171.53;;;-144.33;100.00
19843;BME280;10082;51.038;6.992;2024-03-02T04:50:08;112171.53;;;-144.33;100.00
19843;BME280;10082;51.038;6.992;2024-03-02T04:52:42;112171.53;;;-144.33;100.00
19843;BME280;10082;51.038;6.992;2024-03-02T04:55:23;112171.53;;;-144.33;100.00
19843;BME280;10082;51.038;6.992;2024-03-02T04:58:28;112171.53;;;-144.33;100.00
19843;BME280;10082;51.038;6.992;2024-03-02T05:01:27;112171.53;;;-144.33;100.00
19843;BME280;10082;51.038;6.992;2024-03-02T05:03:59;112171.53;;;-144.33;100.00
19843;BME280;10082;51.038;6.992;2024-03-02T05:06:36;112171.53;;;-144.33;100.00
19843;BME280;10082;51.038;6.992;2024-03-02T05:09:13;112171.53;;;-144.33;100.00
19843;BME280;10082;51.038;6.992;2024-03-02T05:11:49;112171.53;;;-144.33;100.00
19843;BME280;10082;51.038;6.992;2024-03-02T05:14:43;112171.53;;;-144.33;100.00
19843;BME280;10082;51.038;6.992;2024-03-02T05:17:15;112171.53;;;-144.33;100.00
19843;BME280;10082;51.038;6.992;2024-03-02T05:22:27;112171.53;;;-144.33;100.00
19843;BME280;10082;51.038;6.992;2024-03-02T05:25:03;112171.53;;;-144.33;100.00
19843;BME280;10082;51.038;6.992;2024-03-02T05:27:37;112171.53;;;-144.33;100.00
19843;BME280;10082;51.038;6.992;2024-03-02T05:30:15;112171.53;;;-144.33;100.00
19843;BME280;10082;51.038;6.992;2024-03-02T05:32:46;112171.53;;;-144.33;100.00
19843;BME280;10082;51.038;6.992;2024-03-02T05:35:22;112171.53;;;-144.33;100.00
19843;BME280;10082;51.038;6.992;2024-03-02T05:37:51;112171.53;;;-144.33;100.00
19843;BME280;10082;51.038;6.992;2024-03-02T05:40:36;112171.53;;;-144.33;100.00
19843;BME280;10082;51.038;6.992;2024-03-02T05:43:13;112171.53;;;-144.33;100.00
19843;BME280;10082;51.038;6.992;2024-03-02T05:45:43;112171.53;;;-144.33;100.00
19843;BME280;10082;51.038;6.992;2024-03-02T05:48:47;112171.53;;;-144.33;100.00
19843;BME280;10082;51.038;6.992;2024-03-02T05:51:22;112171.53;;;-144.33;100.00
19843;BME280;10082;51.038;6.992;2024-03-02T05:53:53;112171.53;;;-144.33;100.00
19843;BME280;10082;51.038;6.992;2024-03-02T05:56:25;112171.53;;;-144.33;100.00
19843;BME280;10082;51.038;6.992;2024-03-02T05:58:57;112171.53;;;-144.33;100.00
19843;BME280;10082;51.038;6.992;2024-03-02T06:01:54;112171.53;;;-144.33;100.00
19843;BME280;10082;51.038;6.992;2024-03-02T06:04:28;112171.53;;;-144.33;100.00
19843;BME280;10082;51.038;6.992;2024-03-02T06:07:01;112171.53;;;-144.33;100.00
19843;BME280;10082;51.038;6.992;2024-03-02T06:09:29;112171.53;;;-144.33;100.00
19843;BME280;10082;51.038;6.992;2024-03-02T06:12:00;112171.53;;;-144.33;100.00
19843;BME280;10082;51.038;6.992;2024-03-02T06:14:34;112171.53;;;-144.33;100.00
19843;BME280;10082;51.038;6.992;2024-03-02T06:17:14;112171.53;;;-144.33;100.00
19843;BME280;10082;51.038;6.992;2024-03-02T06:19:54;112171.53;;;-144.33;100.00
19843;BME280;10082;51.038;6.992;2024-03-02T06:22:27;112171.53;;;-144.33;100.00
19843;BME280;10082;51.038;6.992;2024-03-02T06:28:03;112171.53;;;-144.33;100.00
19843;BME280;10082;51.038;6.992;2024-03-02T06:30:33;112171.53;;;-144.33;100.00
19843;BME280;10082;51.038;6.992;2024-03-02T06:33:10;112171.53;;;-144.33;100.00
19843;BME280;10082;51.038;6.992;2024-03-02T06:35:40;112171.53;;;-144.33;100.00
19843;BME280;10082;51.038;6.992;2024-03-02T06:38:11;112171.53;;;-144.33;100.00
19843;BME280;10082;51.038;6.992;2024-03-02T06:40:39;112171.53;;;-144.33;100.00
19843;BME280;10082;51.038;6.992;2024-03-02T06:43:12;112171.53;;;-144.33;100.00
19843;BME280;10082;51.038;6.992;2024-03-02T06:45:50;112171.53;;;-144.33;100.00
19843;BME280;10082;51.038;6.992;2024-03-02T06:48:19;112171.53;;;-144.33;100.00
19843;BME280;10082;51.038;6.992;2024-03-02T06:50:53;112171.53;;;-144.33;100.00
19843;BME280;10082;51.038;6.992;2024-03-02T06:53:25;112171.53;;;-144.33;100.00
19843;BME280;10082;51.038;6.992;2024-03-02T06:56:27;112171.53;;;-144.33;100.00
19843;BME280;10082;51.038;6.992;2024-03-02T06:59:11;112171.53;;;-144.33;100.00
19843;BME280;10082;51.038;6.992;2024-03-02T07:01:58;112171.53;;;-144.33;100.00
19843;BME280;10082;51.038;6.992;2024-03-02T07:04:28;112171.53;;;-144.33;100.00
19843;BME280;10082;51.038;6.992;2024-03-02T07:07:05;112171.53;;;-144.33;100.00
19843;BME280;10082;51.038;6.992;2024-03-02T07:09:33;112171.53;;;-144.33;100.00
19843;BME280;10082;51.038;6.992;2024-03-02T07:12:01;112171.53;;;-144.33;100.00
19843;BME280;10082;51.038;6.992;2024-03-02T07:14:41;112171.53;;;-144.33;100.00
19843;BME280;10082;51.038;6.992;2024-03-02T07:17:26;112171.53;;;-144.33;100.00
19843;BME280;10082;51.038;6.992;2024-03-02T07:19:59;112171.53;;;-144.33;100.00
19843;BME280;10082;51.038;6.992;2024-03-02T07:22:36;112171.53;;;-144.33;100.00
19843;BME280;10082;51.038;6.992;2024-03-02T07:28:41;112171.53;;;-144.33;100.00
19843;BME280;10082;51.038;6.992;2024-03-02T07:31:20;112171.53;;;-144.33;100.00
19843;BME280;10082;51.038;6.992;2024-03-02T07:33:51;112171.53;;;-144.33;100.00
19843;BME280;10082;51.038;6.992;2024-03-02T07:36:25;112171.53;;;-144.33;100.00
19843;BME280;10082;51.038;6.992;2024-03-02T07:39:15;112171.53;;;-144.33;100.00
19843;BME280;10082;51.038;6.992;2024-03-02T07:41:46;112171.53;;;-144.33;100.00
19843;BME280;10082;51.038;6.992;2024-03-02T07:44:19;112171.53;;;-144.33;100.00
19843;BME280;10082;51.038;6.992;2024-03-02T07:46:56;112171.53;;;-144.33;100.00
19843;BME280;10082;51.038;6.992;2024-03-02T07:49:27;112171.53;;;-144.33;100.00
19843;BME280;10082;51.038;6.992;2024-03-02T07:51:58;112171.53;;;-144.33;100.00
19843;BME280;10082;51.038;6.992;2024-03-02T07:54:28;112171.53;;;-144.33;100.00
19843;BME280;10082;51.038;6.992;2024-03-02T07:56:56;112171.53;;;-144.33;100.00
19843;BME280;10082;51.038;6.992;2024-03-02T07:59:27;112171.53;;;-144.33;100.00
19843;BME280;10082;51.038;6.992;2024-03-02T08:01:58;112171.53;;;-144.33;100.00
19843;BME280;10082;51.038;6.992;2024-03-02T08:04:26;112171.53;;;-144.33;100.00
19843;BME280;10082;51.038;6.992;2024-03-02T08:06:54;112171.53;;;-144.33;100.00
19843;BME280;10082;51.038;6.992;2024-03-02T08:09:36;112171.53;;;-144.33;100.00
19843;BME280;10082;51.038;6.992;2024-03-02T08:12:16;112171.53;;;-144.33;100.00
19843;BME280;10082;51.038;6.992;2024-03-02T08:14:48;112171.53;;;-144.33;100.00
19843;BME280;10082;51.038;6.992;2024-03-02T08:17:19;112171.53;;;-144.33;100.00
19843;BME280;10082;51.038;6.992;2024-03-02T08:19:47;112171.53;;;-144.33;100.00
19843;BME280;10082;51.038;6.992;2024-03-02T08:22:15;112171.53;;;-144.33;100.00
19843;BME280;10082;51.038;6.992;2024-03-02T08:25:16;112171.53;;;-144.33;100.00
19843;BME280;10082;51.038;6.992;2024-03-02T08:27:39;112171.53;;;-144.33;100.00
19843;BME280;10082;51.038;6.992;2024-03-02T08:30:27;112171.53;;;-144.33;100.00
19843;BME280;10082;51.038;6.992;2024-03-02T08:32:54;112171.53;;;-144.33;100.00
19843;BME280;10082;51.038;6.992;2024-03-02T08:38:10;112171.53;;;-144.33;100.00
19843;BME280;10082;51.038;6.992;2024-03-02T08:40:41;112171.53;;;-144.33;100.00
19843;BME280;10082;51.038;6.992;2024-03-02T08:43:12;112171.53;;;-144.33;100.00
19843;BME280;10082;51.038;6.992;2024-03-02T08:45:47;112171.53;;;-144.33;100.00
19843;BME280;10082;51.038;6.992;2024-03-02T08:48:21;112171.53;;;-144.33;100.00
19843;BME280;10082;51.038;6.992;2024-03-02T08:50:53;112171.53;;;-144.33;99.67
19843;BME280;10082;51.038;6.992;2024-03-02T08:53:30;112171.53;;;-144.33;96.86
19843;BME280;10082;51.038;6.992;2024-03-02T08:55:58;112171.53;;;-144.33;95.16
19843;BME280;10082;51.038;6.992;2024-03-02T08:58:28;112171.53;;;-144.33;93.41
19843;BME280;10082;51.038;6.992;2024-03-02T09:00:57;112171.53;;;-144.33;97.80
19843;BME280;10082;51.038;6.992;2024-03-02T09:03:25;112171.53;;;-144.33;97.66
19843;BME280;10082;51.038;6.992;2024-03-02T09:05:55;112171.53;;;-144.33;98.41
19843;BME280;10082;51.038;6.992;2024-03-02T09:08:25;112171.53;;;-144.33;100.00
19843;BME280;10082;51.038;6.992;2024-03-02T09:11:05;112171.53;;;-144.33;100.00
19843;BME280;10082;51.038;6.992;2024-03-02T09:13:39;112171.53;;;-144.33;98.69
19843;BME280;10082;51.038;6.992;2024-03-02T09:16:20;112171.53;;;-144.33;96.41
19843;BME280;10082;51.038;6.992;2024-03-02T09:18:51;112171.53;;;-144.33;94.86
19843;BME280;10082;51.038;6.992;2024-03-02T09:21:20;112171.53;;;-144.33;95.22
19843;BME280;10082;51.038;6.992;2024-03-02T09:23:48;112171.53;;;-144.33;97.02
19843;BME280;10082;51.038;6.992;2024-03-02T09:26:19;112171.53;;;-144.33;97.94
19843;BME280;10082;51.038;6.992;2024-03-02T09:29:08;112171.53;;;-144.33;92.54
19843;BME280;10082;51.038;6.992;2024-03-02T09:31:52;112171.53;;;-144.33;92.20
19843;BME280;10082;51.038;6.992;2024-03-02T09:34:22;112171.53;;;-144.33;90.63
19843;BME280;10082;51.038;6.992;2024-03-02T09:37:07;112171.53;;;-144.33;90.16
19843;BME280;10082;51.038;6.992;2024-03-02T09:39:36;112171.53;;;-144.33;89.79
19843;BME280;10082;51.038;6.992;2024-03-02T09:42:15;112171.53;;;-144.33;89.84
19843;BME280;10082;51.038;6.992;2024-03-02T09:44:53;112171.53;;;-144.33;90.33
19843;BME280;10082;51.038;6.992;2024-03-02T09:47:23;112171.53;;;-144.33;90.61
19843;BME280;10082;51.038;6.992;2024-03-02T09:49:59;112171.53;;;-144.33;90.04
19843;BME280;10082;51.038;6.992;2024-03-02T09:53:14;112171.53;;;-144.33;89.63
19843;BME280;10082;51.038;6.992;2024-03-02T09:56:02;112171.53;;;-144.33;90.26
19843;BME280;10082;51.038;6.992;2024-03-02T09:58:33;112171.53;;;-144.33;93.38
19843;BME280;10082;51.038;6.992;2024-03-02T10:01:13;112171.53;;;-144.33;93.25
19843;BME280;10082;51.038;6.992;2024-03-02T10:04:10;112171.53;;;-144.33;92.22
19843;BME280;10082;51.038;6.992;2024-03-02T10:06:51;112171.53;;;-144.33;93.44
19843;BME280;10082;51.038;6.992;2024-03-02T10:09:53;112171.53;;;-144.33;92.47
19843;BME280;10082;51.038;6.992;2024-03-02T10:12:23;112171.53;;;-144.33;91.74
19843;BME280;10082;51.038;6.992;2024-03-02T10:15:03;112171.53;;;-144.33;91.36
19843;BME280;10082;51.038;6.992;2024-03-02T10:17:44;112171.53;;;-144.33;92.61
19843;BME280;10082;51.038;6.992;2024-03-02T10:20:26;112171.53;;;-144.33;94.39
19843;BME280;10082;51.038;6.992;2024-03-02T10:23:17;112171.53;;;-144.33;94.95
19843;BME280;10082;51.038;6.992;2024-03-02T10:25:51;112171.53;;;-144.33;93.30
19843;BME280;10082;51.038;6.992;2024-03-02T10:28:46;112171.53;;;-144.33;91.45
19843;BME280;10082;51.038;6.992;2024-03-02T10:31:14;112171.53;;;-144.33;91.25
19843;BME280;10082;51.038;6.992;2024-03-02T10:33:44;112171.53;;;-144.33;91.54
19843;BME280;10082;51.038;6.992;2024-03-02T10:36:24;112171.53;;;-144.33;91.35
19843;BME280;10082;51.038;6.992;2024-03-02T10:38:53;112171.53;;;-144.33;90.27
19843;BME280;10082;51.038;6.992;2024-03-02T10:41:24;112171.53;;;-144.33;90.16
19843;BME280;10082;51.038;6.992;2024-03-02T10:44:13;112171.53;;;-144.33;90.13
19843;BME280;10082;51.038;6.992;2024-03-02T10:46:45;112171.53;;;-144.33;89.13
19843;BME280;10082;51.038;6.992;2024-03-02T10:49:58;112171.53;;;-144.33;89.36
19843;BME280;10082;51.038;6.992;2024-03-02T10:52:12;112171.53;;;-144.33;88.03
19843;BME280;10082;51.038;6.992;2024-03-02T10:54:42;112171.53;;;-144.33;89.20
19843;BME280;10082;51.038;6.992;2024-03-02T10:57:17;112171.53;;;-144.33;88.79
19843;BME280;10082;51.038;6.992;2024-03-02T10:59:53;112171.53;;;-144.33;90.15
19843;BME280;10082;51.038;6.992;2024-03-02T11:02:32;112171.53;;;-144.33;91.04
19843;BME280;10082;51.038;6.992;2024-03-02T11:05:05;112171.53;;;-144.33;89.92
19843;BME280;10082;51.038;6.992;2024-03-02T11:07:37;112171.53;;;-144.33;88.92
19843;BME280;10082;51.038;6.992;2024-03-02T11:10:28;112171.53;;;-144.33;89.18
19843;BME280;10082;51.038;6.992;2024-03-02T11:13:09;112171.53;;;-144.33;89.23
19843;BME280;10082;51.038;6.992;2024-03-02T11:15:55;112171.53;;;-144.33;90.35
19843;BME280;10082;51.038;6.992;2024-03-02T11:18:40;112171.53;;;-144.33;91.56
19843;BME280;10082;51.038;6.992;2024-03-02T11:21:24;112171.53;;;-144.33;92.52
19843;BME280;10082;51.038;6.992;2024-03-02T11:24:00;112171.53;;;-144.33;92.51
19843;BME280;10082;51.038;6.992;2024-03-02T11:26:38;112171.53;;;-144.33;92.88
19843;BME280;10082;51.038;6.992;2024-03-02T11:32:20;112171.53;;;-144.33;91.15
19843;BME280;10082;51.038;6.992;2024-03-02T11:34:50;112171.53;;;-144.33;92.35
19843;BME280;10082;51.038;6.992;2024-03-02T11:37:29;112171.53;;;-144.33;92.71
19843;BME280;10082;51.038;6.992;2024-03-02T11:40:16;112171.53;;;-144.33;91.01
19843;BME280;10082;51.038;6.992;2024-03-02T11:42:57;112171.53;;;-144.33;90.55
19843;BME280;10082;51.038;6.992;2024-03-02T11:45:38;112171.53;;;-144.33;91.26
19843;BME280;10082;51.038;6.992;2024-03-02T11:48:20;112171.53;;;-144.33;91.21
19843;BME280;10082;51.038;6.992;2024-03-02T11:50:57;112171.53;;;-144.33;92.21
19843;BME280;10082;51.038;6.992;2024-03-02T11:53:38;112171.53;;;-144.33;92.95
19843;BME280;10082;51.038;6.992;2024-03-02T11:56:09;112171.53;;;-144.33;92.36
19843;BME280;10082;51.038;6.992;2024-03-02T11:59:01;112171.53;;;-144.33;92.63
19843;BME280;10082;51.038;6.992;2024-03-02T12:01:55;112171.53;;;-144.33;91.20
19843;BME280;10082;51.038;6.992;2024-03-02T12:04:28;112171.53;;;-144.33;91.41
19843;BME280;10082;51.038;6.992;2024-03-02T12:07:00;112171.53;;;-144.33;91.40
19843;BME280;10082;51.038;6.992;2024-03-02T12:09:28;112171.53;;;-144.33;91.21
19843;BME280;10082;51.038;6.992;2024-03-02T12:12:18;112171.53;;;-144.33;92.07
19843;BME280;10082;51.038;6.992;2024-03-02T12:14:53;112171.53;;;-144.33;92.09
19843;BME280;10082;51.038;6.992;2024-03-02T12:17:24;112171.53;;;-144.33;91.62
19843;BME280;10082;51.038;6.992;2024-03-02T12:19:56;112171.53;;;-144.33;91.13
19843;BME280;10082;51.038;6.992;2024-03-02T12:22:37;112171.53;;;-144.33;92.06
19843;BME280;10082;51.038;6.992;2024-03-02T12:25:12;112171.53;;;-144.33;92.02
19843;BME280;10082;51.038;6.992;2024-03-02T12:27:45;112171.53;;;-144.33;92.95
19843;BME280;10082;51.038;6.992;2024-03-02T12:30:13;112171.53;;;-144.33;93.08
19843;BME280;10082;51.038;6.992;2024-03-02T12:32:47;112171.53;;;-144.33;92.69
19843;BME280;10082;51.038;6.992;2024-03-02T12:35:19;112171.53;;;-144.33;92.83
19843;BME280;10082;51.038;6.992;2024-03-02T12:37:56;112171.53;;;-144.33;93.21
19843;BME280;10082;51.038;6.992;2024-03-02T12:40:31;112171.53;;;-144.33;92.54
19843;BME280;10082;51.038;6.992;2024-03-02T12:43:12;112171.53;;;-144.33;92.20
19843;BME280;10082;51.038;6.992;2024-03-02T12:46:04;112171.53;;;-144.33;92.40
19843;BME280;10082;51.038;6.992;2024-03-02T12:51:13;112171.53;;;-144.33;92.97
19843;BME280;10082;51.038;6.992;2024-03-02T12:53:53;112171.53;;;-144.33;93.09
19843;BME280;10082;51.038;6.992;2024-03-02T12:56:32;112171.53;;;-144.33;92.62
19843;BME280;10082;51.038;6.992;2024-03-02T12:59:08;112171.53;;;-144.33;92.43
19843;BME280;10082;51.038;6.992;2024-03-02T13:01:50;112171.53;;;-144.33;92.54
19843;BME280;10082;51.038;6.992;2024-03-02T13:04:26;112171.53;;;-144.33;93.25
19843;BME280;10082;51.038;6.992;2024-03-02T13:07:06;112171.53;;;-144.33;93.15
19843;BME280;10082;51.038;6.992;2024-03-02T13:09:37;112171.53;;;-144.33;94.27
19843;BME280;10082;51.038;6.992;2024-03-02T13:12:10;112171.53;;;-144.33;93.33
19843;BME280;10082;51.038;6.992;2024-03-02T13:14:39;112171.53;;;-144.33;92.56
19843;BME280;10082;51.038;6.992;2024-03-02T13:17:18;112171.53;;;-144.33;91.87
19843;BME280;10082;51.038;6.992;2024-03-02T13:19:56;112171.53;;;-144.33;90.68
19843;BME280;10082;51.038;6.992;2024-03-02T13:22:27;112171.53;;;-144.33;90.34
19843;BME280;10082;51.038;6.992;2024-03-02T13:34:57;112171.53;;;-144.33;90.54
19843;BME280;10082;51.038;6.992;2024-03-02T13:38:35;112171.53;;;-144.33;91.61
19843;BME280;10082;51.038;6.992;2024-03-02T13:41:19;112171.53;;;-144.33;90.54
19843;BME280;10082;51.038;6.992;2024-03-02T13:43:50;112171.53;;;-144.33;90.38
19843;BME280;10082;51.038;6.992;2024-03-02T13:46:22;112171.53;;;-144.33;90.55
19843;BME280;10082;51.038;6.992;2024-03-02T13:49:10;112171.53;;;-144.33;91.03